Time,TemperatureF,DewpointF,PressureIn,WindDirection,WindDirectionDegrees,WindSpeedMPH,WindSpeedGustMPH,Humidity,HourlyPrecipIn,Conditions,Clouds,dailyrainin,SoftwareType,DateUTC
2013-03-22 00:03:00,24.0,16.0,30.03,NW,317,0.0,0.0,71,0.00,,,0.00,,2013-03-22 04:03:00,
2013-03-22 00:12:00,24.0,16.0,30.03,NW,317,0.0,0.0,71,0.00,,,0.00,,2013-03-22 04:12:00,
2013-03-22 00:23:00,23.0,15.0,30.04,WNW,298,0.0,0.0,71,0.00,,,0.00,,2013-03-22 04:23:00,
2013-03-22 00:32:00,23.0,15.0,30.04,WNW,298,0.0,0.0,71,0.00,,,0.00,,2013-03-22 04:32:00,
2013-03-22 00:43:00,23.0,15.0,30.04,WNW,298,0.0,0.0,71,0.00,,,0.00,,2013-03-22 04:43:00,
2013-03-22 00:52:00,23.0,15.0,30.04,WNW,297,0.0,0.0,72,0.00,,,0.00,,2013-03-22 04:52:00,
2013-03-22 01:02:00,23.0,15.0,30.04,WNW,297,0.0,0.0,72,0.00,,,0.00,,2013-03-22 05:02:00,
2013-03-22 01:12:00,23.0,15.0,30.04,WNW,297,0.0,0.0,72,0.00,,,0.00,,2013-03-22 05:12:00,
2013-03-22 01:22:00,22.0,15.0,30.03,WNW,298,0.0,0.0,75,0.00,,,0.00,,2013-03-22 05:22:00,
2013-03-22 01:32:00,22.0,15.0,30.03,WNW,298,0.0,0.0,75,0.00,,,0.00,,2013-03-22 05:32:00,
2013-03-22 01:42:00,22.0,15.0,30.03,WNW,298,0.0,0.0,75,0.00,,,0.00,,2013-03-22 05:42:00,
2013-03-22 01:52:00,22.0,15.0,30.03,WNW,297,0.0,0.0,75,0.00,,,0.00,,2013-03-22 05:52:00,
2013-03-22 02:02:00,22.0,15.0,30.03,WNW,297,0.0,0.0,74,0.00,,,0.00,,2013-03-22 06:02:00,
2013-03-22 02:13:00,22.0,15.0,30.03,WNW,297,0.0,0.0,74,0.00,,,0.00,,2013-03-22 06:13:00,
2013-03-22 02:22:00,22.0,16.0,30.04,WNW,298,0.0,0.0,76,0.00,,,0.00,,2013-03-22 06:22:00,
2013-03-22 02:32:00,21.0,15.0,30.04,WNW,298,0.0,1.0,78,0.00,,,0.00,,2013-03-22 06:32:00,
2013-03-22 02:52:00,21.0,15.0,30.04,WNW,298,0.0,1.0,78,0.00,,,0.00,,2013-03-22 06:52:00,
2013-03-22 03:02:00,20.0,14.0,30.04,WNW,290,0.0,0.0,78,0.00,,,0.00,,2013-03-22 07:02:00,
2013-03-22 03:12:00,20.0,14.0,30.04,WNW,290,0.0,0.0,78,0.00,,,0.00,,2013-03-22 07:12:00,
2013-03-22 03:22:00,20.0,15.0,30.04,WNW,290,0.0,0.0,80,0.00,,,0.00,,2013-03-22 07:22:00,
2013-03-22 03:32:00,20.0,15.0,30.04,WNW,290,0.0,0.0,80,0.00,,,0.00,,2013-03-22 07:32:00,
2013-03-22 03:42:00,20.0,15.0,30.04,WNW,290,0.0,0.0,80,0.00,,,0.00,,2013-03-22 07:42:00,
2013-03-22 03:52:00,20.0,15.0,30.04,WNW,289,0.0,1.0,80,0.00,,,0.00,,2013-03-22 07:52:00,
2013-03-22 04:03:00,19.0,14.0,30.04,WNW,289,0.0,0.0,82,0.00,,,0.00,,2013-03-22 08:03:00,
2013-03-22 04:12:00,19.0,14.0,30.04,WNW,289,0.0,0.0,82,0.00,,,0.00,,2013-03-22 08:12:00,
2013-03-22 04:22:00,18.0,14.0,30.04,WNW,290,0.0,0.0,85,0.00,,,0.00,,2013-03-22 08:22:00,
2013-03-22 04:32:00,17.0,13.0,30.04,WNW,290,0.0,0.0,84,0.00,,,0.00,,2013-03-22 08:32:00,
2013-03-22 04:42:00,17.0,13.0,30.04,WNW,290,0.0,0.0,84,0.00,,,0.00,,2013-03-22 08:42:00,
2013-03-22 04:52:00,18.0,15.0,30.04,WNW,289,0.0,0.0,86,0.00,,,0.00,,2013-03-22 08:52:00,
2013-03-22 05:02:00,18.0,15.0,30.04,WNW,290,0.0,0.0,86,0.00,,,0.00,,2013-03-22 09:02:00,
2013-03-22 05:12:00,18.0,15.0,30.04,WNW,290,0.0,0.0,86,0.00,,,0.00,,2013-03-22 09:12:00,
2013-03-22 05:22:00,17.0,14.0,30.04,WNW,290,0.0,0.0,88,0.00,,,0.00,,2013-03-22 09:22:00,
2013-03-22 05:32:00,17.0,14.0,30.04,WNW,290,0.0,0.0,88,0.00,,,0.00,,2013-03-22 09:32:00,
2013-03-22 05:42:00,17.0,14.0,30.04,WNW,290,0.0,0.0,88,0.00,,,0.00,,2013-03-22 09:42:00,
2013-03-22 05:53:00,16.0,13.0,30.04,WNW,289,0.0,0.0,89,0.00,,,0.00,,2013-03-22 09:53:00,
2013-03-22 06:03:00,16.0,13.0,30.04,WNW,289,0.0,0.0,89,0.00,,,0.00,,2013-03-22 10:03:00,
2013-03-22 06:12:00,16.0,13.0,30.04,WNW,289,0.0,0.0,89,0.00,,,0.00,,2013-03-22 10:12:00,
2013-03-22 06:22:00,17.0,15.0,30.05,West,269,0.0,1.0,90,0.00,,,0.00,,2013-03-22 10:22:00,
2013-03-22 06:32:00,17.0,15.0,30.05,West,269,0.0,0.0,90,0.00,,,0.00,,2013-03-22 10:32:00,
2013-03-22 06:42:00,17.0,15.0,30.05,West,269,0.0,0.0,90,0.00,,,0.00,,2013-03-22 10:42:00,
2013-03-22 06:52:00,16.0,14.0,30.05,West,269,0.0,0.0,90,0.00,,,0.00,,2013-03-22 10:52:00,
2013-03-22 07:03:00,16.0,14.0,30.06,West,269,0.0,0.0,91,0.00,,,0.00,,2013-03-22 11:03:00,
2013-03-22 07:12:00,16.0,14.0,30.06,West,269,0.0,0.0,91,0.00,,,0.00,,2013-03-22 11:12:00,
2013-03-22 07:22:00,16.0,14.0,30.06,West,269,0.0,0.0,92,0.00,,,0.00,,2013-03-22 11:22:00,
2013-03-22 07:32:00,16.0,14.0,30.06,West,269,0.0,0.0,91,0.00,,,0.00,,2013-03-22 11:32:00,
2013-03-22 07:42:00,16.0,14.0,30.06,West,269,0.0,0.0,91,0.00,,,0.00,,2013-03-22 11:42:00,
2013-03-22 07:52:00,16.0,14.0,30.06,West,269,0.0,0.0,91,0.00,,,0.00,,2013-03-22 11:52:00,
2013-03-22 08:02:00,16.0,14.0,30.07,West,269,0.0,0.0,92,0.00,,,0.00,,2013-03-22 12:02:00,
2013-03-22 08:12:00,16.0,14.0,30.07,West,269,0.0,1.0,91,0.00,,,0.00,,2013-03-22 12:12:00,
2013-03-22 08:22:00,16.0,14.0,30.07,West,269,0.0,1.0,91,0.00,,,0.00,,2013-03-22 12:22:00,
2013-03-22 08:32:00,16.0,14.0,30.07,West,269,0.0,0.0,91,0.00,,,0.00,,2013-03-22 12:32:00,
2013-03-22 08:42:00,16.0,14.0,30.07,West,269,0.0,0.0,91,0.00,,,0.00,,2013-03-22 12:42:00,
2013-03-22 08:52:00,17.0,15.0,30.07,SSW,211,0.0,1.0,92,0.00,,,0.00,,2013-03-22 12:52:00,
2013-03-22 09:02:00,19.0,17.0,30.07,WSW,238,0.0,1.0,91,0.00,,,0.00,,2013-03-22 13:02:00,
2013-03-22 09:12:00,19.0,17.0,30.07,WSW,238,0.0,1.0,91,0.00,,,0.00,,2013-03-22 13:12:00,
2013-03-22 09:22:00,20.0,17.0,30.07,WSW,238,0.0,1.0,89,0.00,,,0.00,,2013-03-22 13:22:00,
2013-03-22 09:32:00,22.0,18.0,30.07,SW,235,0.0,1.0,86,0.00,,,0.00,,2013-03-22 13:32:00,
2013-03-22 09:42:00,22.0,18.0,30.07,SW,235,0.0,1.0,86,0.00,,,0.00,,2013-03-22 13:42:00,
2013-03-22 09:52:00,22.0,18.0,30.07,SW,235,0.0,1.0,86,0.00,,,0.00,,2013-03-22 13:52:00,
2013-03-22 10:02:00,26.0,20.0,30.07,WSW,243,0.0,2.0,79,0.00,,,0.00,,2013-03-22 14:02:00,
2013-03-22 10:12:00,26.0,20.0,30.07,WSW,243,0.0,2.0,79,0.00,,,0.00,,2013-03-22 14:12:00,
2013-03-22 10:22:00,27.0,20.0,30.07,SSW,199,0.0,2.0,76,0.00,,,0.00,,2013-03-22 14:22:00,
2013-03-22 10:32:00,30.0,22.0,30.06,WSW,257,1.0,3.0,71,0.00,,,0.00,,2013-03-22 14:32:00,
2013-03-22 10:42:00,30.0,22.0,30.06,WSW,257,1.0,3.0,71,0.00,,,0.00,,2013-03-22 14:42:00,
2013-03-22 10:52:00,31.0,20.0,30.06,SW,232,1.0,2.0,64,0.00,,,0.00,,2013-03-22 14:52:00,
2013-03-22 11:03:00,31.0,20.0,30.07,West,271,2.0,4.0,62,0.00,,,0.00,,2013-03-22 15:03:00,
2013-03-22 11:12:00,31.0,20.0,30.07,West,271,2.0,4.0,62,0.00,,,0.00,,2013-03-22 15:12:00,
2013-03-22 11:32:00,32.0,19.0,30.07,WNW,292,3.0,6.0,59,0.00,,,0.00,,2013-03-22 15:32:00,
2013-03-22 11:42:00,32.0,19.0,30.07,WNW,292,3.0,6.0,59,0.00,,,0.00,,2013-03-22 15:42:00,
2013-03-22 11:53:00,33.0,19.0,30.07,SW,226,5.0,7.0,57,0.00,,,0.00,,2013-03-22 15:53:00,
2013-03-22 12:02:00,34.0,19.0,30.07,WNW,290,3.0,8.0,53,0.00,,,0.00,,2013-03-22 16:02:00,
2013-03-22 12:13:00,34.0,17.0,30.07,NW,305,3.0,8.0,50,0.00,,,0.00,,2013-03-22 16:13:00,
2013-03-22 12:22:00,34.0,17.0,30.07,NW,305,3.0,8.0,50,0.00,,,0.00,,2013-03-22 16:22:00,
2013-03-22 12:32:00,34.0,18.0,30.07,West,266,2.0,6.0,51,0.00,,,0.00,,2013-03-22 16:32:00,
2013-03-22 12:42:00,35.0,18.0,30.07,NNW,345,3.0,8.0,50,0.00,,,0.00,,2013-03-22 16:42:00,
2013-03-22 12:52:00,35.0,18.0,30.07,NNW,345,3.0,8.0,50,0.00,,,0.00,,2013-03-22 16:52:00,
2013-03-22 13:03:00,36.0,18.0,30.07,West,271,6.0,12.0,48,0.00,,,0.00,,2013-03-22 17:03:00,
2013-03-22 13:12:00,36.0,17.0,30.06,NW,323,2.0,10.0,46,0.00,,,0.00,,2013-03-22 17:12:00,
2013-03-22 13:23:00,36.0,17.0,30.06,NW,323,2.0,10.0,46,0.00,,,0.00,,2013-03-22 17:23:00,
2013-03-22 13:32:00,37.0,18.0,30.06,West,267,3.0,7.0,46,0.00,,,0.00,,2013-03-22 17:32:00,
2013-03-22 13:42:00,37.0,18.0,30.06,West,267,3.0,7.0,46,0.00,,,0.00,,2013-03-22 17:42:00,
2013-03-22 13:53:00,37.0,19.0,30.06,SW,222,2.0,9.0,47,0.00,,,0.00,,2013-03-22 17:53:00,
2013-03-22 14:02:00,39.0,19.0,30.05,West,259,5.0,11.0,45,0.00,,,0.00,,2013-03-22 18:02:00,
2013-03-22 14:12:00,39.0,19.0,30.05,West,259,5.0,11.0,45,0.00,,,0.00,,2013-03-22 18:12:00,
2013-03-22 14:22:00,38.0,19.0,30.05,WSW,255,2.0,8.0,45,0.00,,,0.00,,2013-03-22 18:22:00,
2013-03-22 14:33:00,38.0,17.0,30.04,West,267,2.0,7.0,42,0.00,,,0.00,,2013-03-22 18:33:00,
2013-03-22 14:42:00,38.0,17.0,30.04,West,267,2.0,7.0,42,0.00,,,0.00,,2013-03-22 18:42:00,
2013-03-22 14:52:00,40.0,19.0,30.04,SSW,210,1.0,6.0,42,0.00,,,0.00,,2013-03-22 18:52:00,
2013-03-22 15:02:00,40.0,17.0,30.03,West,280,3.0,9.0,39,0.00,,,0.00,,2013-03-22 19:02:00,
2013-03-22 15:12:00,40.0,17.0,30.03,West,280,3.0,9.0,39,0.00,,,0.00,,2013-03-22 19:12:00,
2013-03-22 15:22:00,40.0,19.0,30.02,West,273,3.0,8.0,42,0.00,,,0.00,,2013-03-22 19:22:00,
2013-03-22 15:32:00,41.0,19.0,30.02,WNW,283,3.0,8.0,41,0.00,,,0.00,,2013-03-22 19:32:00,
2013-03-22 15:42:00,41.0,19.0,30.02,WNW,283,3.0,8.0,41,0.00,,,0.00,,2013-03-22 19:42:00,
2013-03-22 15:52:00,41.0,19.0,30.01,WNW,294,4.0,7.0,40,0.00,,,0.00,,2013-03-22 19:52:00,
2013-03-22 16:02:00,41.0,19.0,30.01,South,187,4.0,7.0,41,0.00,,,0.00,,2013-03-22 20:02:00,
2013-03-22 16:12:00,41.0,19.0,30.01,South,187,4.0,7.0,41,0.00,,,0.00,,2013-03-22 20:12:00,
2013-03-22 16:22:00,41.0,19.0,30.00,WSW,242,3.0,7.0,40,0.00,,,0.00,,2013-03-22 20:22:00,
2013-03-22 16:32:00,41.0,19.0,30.00,WSW,242,3.0,7.0,40,0.00,,,0.00,,2013-03-22 20:32:00,
2013-03-22 16:42:00,41.0,19.0,30.00,WSW,242,3.0,7.0,40,0.00,,,0.00,,2013-03-22 20:42:00,
2013-03-22 16:52:00,42.0,19.0,30.00,NNE,26,2.0,8.0,40,0.00,,,0.00,,2013-03-22 20:52:00,
2013-03-22 17:02:00,42.0,19.0,29.99,SW,226,1.0,6.0,40,0.00,,,0.00,,2013-03-22 21:02:00,
2013-03-22 17:12:00,43.0,19.0,30.00,West,271,6.0,9.0,37,0.00,,,0.00,,2013-03-22 21:12:00,
2013-03-22 17:22:00,43.0,19.0,30.00,West,271,6.0,9.0,37,0.00,,,0.00,,2013-03-22 21:22:00,
2013-03-22 17:32:00,42.0,18.0,30.00,SW,232,2.0,8.0,37,0.00,,,0.00,,2013-03-22 21:32:00,
2013-03-22 17:42:00,42.0,18.0,30.00,SW,232,2.0,8.0,37,0.00,,,0.00,,2013-03-22 21:42:00,
2013-03-22 17:53:00,42.0,18.0,30.00,NNW,327,1.0,7.0,38,0.00,,,0.00,,2013-03-22 21:53:00,
2013-03-22 18:02:00,42.0,19.0,30.00,NE,53,1.0,4.0,39,0.00,,,0.00,,2013-03-22 22:02:00,
2013-03-22 18:12:00,42.0,19.0,30.00,NE,53,1.0,4.0,39,0.00,,,0.00,,2013-03-22 22:12:00,
2013-03-22 18:23:00,42.0,19.0,30.00,NE,53,1.0,4.0,39,0.00,,,0.00,,2013-03-22 22:23:00,
2013-03-22 18:32:00,42.0,19.0,30.00,NE,53,1.0,4.0,39,0.00,,,0.00,,2013-03-22 22:32:00,
2013-03-22 18:42:00,42.0,19.0,30.00,NE,53,1.0,4.0,39,0.00,,,0.00,,2013-03-22 22:42:00,
2013-03-22 18:53:00,43.0,19.0,30.01,WSW,246,4.0,7.0,38,0.00,,,0.00,,2013-03-22 22:53:00,
2013-03-22 19:02:00,43.0,19.0,30.01,NW,315,2.0,5.0,38,0.00,,,0.00,,2013-03-22 23:02:00,
2013-03-22 19:12:00,43.0,19.0,30.01,NW,315,2.0,5.0,38,0.00,,,0.00,,2013-03-22 23:12:00,
2013-03-22 19:22:00,42.0,19.0,30.01,NW,314,2.0,6.0,39,0.00,,,0.00,,2013-03-22 23:22:00,
2013-03-22 19:32:00,42.0,19.0,30.02,NW,322,2.0,4.0,39,0.00,,,0.00,,2013-03-22 23:32:00,
2013-03-22 19:42:00,42.0,19.0,30.02,NW,322,2.0,4.0,39,0.00,,,0.00,,2013-03-22 23:42:00,
2013-03-22 19:52:00,42.0,19.0,30.02,NW,322,2.0,4.0,39,0.00,,,0.00,,2013-03-22 23:52:00,
2013-03-22 20:02:00,40.0,19.0,30.03,NW,321,2.0,5.0,42,0.00,,,0.00,,2013-03-23 00:02:00,
2013-03-22 20:12:00,40.0,19.0,30.03,NW,321,2.0,5.0,42,0.00,,,0.00,,2013-03-23 00:12:00,
2013-03-22 20:23:00,39.0,19.0,30.02,NW,314,1.0,4.0,44,0.00,,,0.00,,2013-03-23 00:23:00,
2013-03-22 20:32:00,39.0,19.0,30.02,NNE,26,0.0,2.0,45,0.00,,,0.00,,2013-03-23 00:32:00,
2013-03-22 20:42:00,38.0,19.0,30.02,NNE,26,0.0,1.0,46,0.00,,,0.00,,2013-03-23 00:42:00,
2013-03-22 20:52:00,38.0,19.0,30.02,NNE,26,0.0,1.0,46,0.00,,,0.00,,2013-03-23 00:52:00,
2013-03-22 21:03:00,37.0,19.0,30.02,NNE,26,0.0,0.0,48,0.00,,,0.00,,2013-03-23 01:03:00,
2013-03-22 21:12:00,37.0,19.0,30.02,NNE,26,0.0,0.0,48,0.00,,,0.00,,2013-03-23 01:12:00,
2013-03-22 21:22:00,35.0,19.0,30.02,NNE,25,0.0,0.0,51,0.00,,,0.00,,2013-03-23 01:22:00,
2013-03-22 21:32:00,34.0,18.0,30.02,NNE,26,0.0,0.0,52,0.00,,,0.00,,2013-03-23 01:32:00,
2013-03-22 21:42:00,34.0,18.0,30.02,NNE,26,0.0,0.0,52,0.00,,,0.00,,2013-03-23 01:42:00,
2013-03-22 21:52:00,33.0,19.0,30.02,NNE,26,0.0,0.0,55,0.00,,,0.00,,2013-03-23 01:52:00,
2013-03-22 22:02:00,33.0,19.0,30.03,NNE,25,0.0,0.0,56,0.00,,,0.00,,2013-03-23 02:02:00,
2013-03-22 22:12:00,33.0,19.0,30.03,NNE,25,0.0,0.0,56,0.00,,,0.00,,2013-03-23 02:12:00,
2013-03-22 22:22:00,33.0,19.0,30.03,NNE,26,0.0,0.0,57,0.00,,,0.00,,2013-03-23 02:22:00,
2013-03-22 22:32:00,32.0,19.0,30.03,NNE,26,0.0,0.0,58,0.00,,,0.00,,2013-03-23 02:32:00,
2013-03-22 22:42:00,32.0,19.0,30.03,NNE,26,0.0,0.0,58,0.00,,,0.00,,2013-03-23 02:42:00,
2013-03-22 22:52:00,32.0,19.0,30.03,NNE,26,0.0,0.0,58,0.00,,,0.00,,2013-03-23 02:52:00,
2013-03-22 23:02:00,31.0,19.0,30.03,NNE,26,0.0,0.0,61,0.00,,,0.00,,2013-03-23 03:02:00,
2013-03-22 23:12:00,31.0,19.0,30.03,NNE,26,0.0,0.0,61,0.00,,,0.00,,2013-03-23 03:12:00,
2013-03-22 23:22:00,30.0,19.0,30.04,NNE,25,0.0,0.0,63,0.00,,,0.00,,2013-03-23 03:22:00,
2013-03-22 23:33:00,32.0,21.0,30.04,NNE,25,0.0,0.0,63,0.00,,,0.00,,2013-03-23 03:33:00,
2013-03-22 23:43:00,32.0,21.0,30.04,NNE,25,0.0,0.0,63,0.00,,,0.00,,2013-03-23 03:43:00,
2013-03-22 23:53:00,31.0,20.0,30.04,SSW,197,0.0,0.0,64,0.00,,,0.00,,2013-03-23 03:53:00,